Terminal Aerodrome Forecast
Issued by NWS Mt. Holly, NJ

Home | Current Version | Previous Version | Text Only | Print | Product List | Glossary On
Versions: 1 2 3 4 5 6 7 8 9 10 11 12 13 14 15 16 17 18 19 20
676
FTUS41 KPHI 210211 AAA
TAFRDG
TAF AMD
KRDG 210211Z 2102/2124 VRB03KT 3SM BR OVC005
     FM210400 VRB03KT 1SM -DZ BR OVC002
     FM211500 VRB03KT 3SM BR BKN005 OVC012
     FM211700 22004KT P6SM BKN012=

USA.gov is the U.S. government's official web portal to all federal, state and local government web resources and services.